Time;durP1;ratioP1;P1;durP2;ratioP2;P2;SDS_P1;SDS_P2;PMS_P1;PMS_P2;Temp;Humidity;BMP_temperature;BMP_pressure;BME280_temperature;BME280_humidity;BME280_pressure;Samples;Min_cycle;Max_cycle;Signal;HPM_P1;HPM_P2
2022/03/10 00:00:16;;;;;;;37.88;18.60;;;-1.20;73.60;;;;;;6194361;23;20025;-86
2022/03/10 00:03:27;;;;;;;34.10;16.98;;;-1.20;73.90;;;;;;6195852;23;20022;-85
2022/03/10 00:06:22;;;;;;;38.03;17.42;;;-1.20;73.20;;;;;;6105784;23;20062;-85
2022/03/10 00:09:16;;;;;;;41.28;17.90;;;-1.30;74.40;;;;;;6193529;23;20022;-86
2022/03/10 00:12:07;;;;;;;37.80;16.85;;;-1.30;72.20;;;;;;6197320;23;20056;-86
2022/03/10 00:14:57;;;;;;;30.70;14.98;;;-1.30;72.10;;;;;;6105150;23;20078;-86
2022/03/10 00:18:02;;;;;;;31.88;15.57;;;-1.30;71.40;;;;;;6196366;23;20022;-86
2022/03/10 00:21:07;;;;;;;31.95;15.85;;;-1.40;75.10;;;;;;6105563;23;20033;-86
2022/03/10 00:24:39;;;;;;;38.83;17.08;;;-1.40;74.50;;;;;;6106527;23;20058;-86
2022/03/10 00:27:11;;;;;;;36.40;16.80;;;-1.50;76.90;;;;;;6073705;23;20071;-86
2022/03/10 00:30:22;;;;;;;34.95;16.90;;;-1.50;77.20;;;;;;6062350;23;20027;-86
2022/03/10 00:33:22;;;;;;;32.58;15.73;;;-1.50;76.00;;;;;;5979015;23;20116;-85
2022/03/10 00:36:06;;;;;;;33.55;13.88;;;-1.50;76.50;;;;;;5965834;24;20028;-85
2022/03/10 00:38:56;;;;;;;31.02;15.13;;;-1.60;75.80;;;;;;5966412;24;20020;-85
2022/03/10 00:41:54;;;;;;;34.20;16.02;;;-1.60;76.50;;;;;;5874027;24;20485;-86
2022/03/10 00:46:12;;;;;;;34.65;16.20;;;-1.60;74.70;;;;;;5816063;24;20495;-86
2022/03/10 00:49:03;;;;;;;;;;;;;;;;;;;;;
2022/03/10 00:51:37;;;;;;;34.17;16.65;;;-1.70;75.90;;;;;;5833527;24;20046;-86
2022/03/10 00:54:12;;;;;;;33.38;16.95;;;-1.70;75.70;;;;;;5823422;24;20042;-86
2022/03/10 00:56:53;;;;;;;32.00;16.77;;;-1.70;76.70;;;;;;5854971;24;20181;-86
2022/03/10 01:02:22;;;;;;;29.13;15.68;;;-1.70;74.60;;;;;;5814427;24;20923;-86
2022/03/10 01:04:54;;;;;;;37.97;17.60;;;-1.80;74.30;;;;;;5814023;24;20019;-86
2022/03/10 01:10:32;;;;;;;29.88;16.02;;;-1.70;75.30;;;;;;5887019;24;20849;-86
2022/03/10 01:13:28;;;;;;;43.25;19.02;;;-1.70;74.10;;;;;;5899589;24;20017;-86
2022/03/10 01:16:08;;;;;;;30.60;17.02;;;-1.70;74.60;;;;;;5807811;24;20849;-86
2022/03/10 01:19:05;;;;;;;37.25;18.33;;;-1.70;76.20;;;;;;5802411;24;20120;-86
2022/03/10 01:21:46;;;;;;;35.63;15.98;;;-1.70;73.60;;;;;;5796649;24;20080;-85
2022/03/10 01:27:45;;;;;;;32.72;15.32;;;-1.70;76.10;;;;;;5803245;24;20028;-86
2022/03/10 01:30:18;;;;;;;31.60;15.55;;;-1.80;77.10;;;;;;5788224;24;20073;-86
2022/03/10 01:32:48;;;;;;;35.80;16.95;;;-1.80;76.70;;;;;;5830855;24;20169;-86
2022/03/10 01:35:19;;;;;;;28.90;14.75;;;-1.90;77.90;;;;;;5833418;24;20019;-86
2022/03/10 01:38:02;;;;;;;40.33;17.00;;;-1.90;77.20;;;;;;5833297;24;20797;-86
2022/03/10 01:40:45;;;;;;;32.78;16.88;;;-2.00;77.90;;;;;;5913373;24;20033;-86
2022/03/10 01:43:19;;;;;;;36.63;15.77;;;-2.00;75.80;;;;;;5915936;24;20074;-86
2022/03/10 01:46:08;;;;;;;37.13;16.15;;;-2.00;74.40;;;;;;5849072;24;20023;-86
2022/03/10 01:49:12;;;;;;;35.97;16.80;;;-2.00;74.00;;;;;;5914140;24;20038;-86
2022/03/10 01:52:01;;;;;;;34.97;18.05;;;-2.00;75.70;;;;;;5944772;23;20056;-86
2022/03/10 01:54:36;;;;;;;33.85;15.25;;;-2.10;75.60;;;;;;5997942;23;20027;-86
2022/03/10 01:57:32;;;;;;;38.20;17.10;;;-2.10;75.00;;;;;;5941679;24;20033;-86
2022/03/10 02:00:27;;;;;;;35.85;17.35;;;-2.00;74.90;;;;;;5940043;24;20092;-85
2022/03/10 02:03:29;;;;;;;36.88;17.65;;;-2.10;74.70;;;;;;5911988;24;20026;-87
2022/03/10 02:06:14;;;;;;;39.08;17.45;;;-2.10;74.90;;;;;;5910558;24;20029;-86
2022/03/10 02:12:51;;;;;;;38.03;18.17;;;-2.10;75.50;;;;;;5882455;24;20034;-85
2022/03/10 02:18:20;;;;;;;37.13;17.80;;;-2.20;75.30;;;;;;5934645;24;20017;-85
2022/03/10 02:21:11;;;;;;;38.35;17.30;;;-2.20;76.20;;;;;;5942697;24;20025;-86
2022/03/10 02:23:53;;;;;;;33.40;16.85;;;-2.20;76.80;;;;;;5942771;24;20025;-86
2022/03/10 02:26:39;;;;;;;39.20;16.80;;;-2.20;76.10;;;;;;5963592;24;20110;-85
2022/03/10 02:29:43;;;;;;;32.63;14.77;;;-2.20;76.50;;;;;;6007539;23;20821;-86
2022/03/10 02:32:25;;;;;;;32.28;16.27;;;-2.30;74.30;;;;;;6049250;23;20019;-85
2022/03/10 02:35:25;;;;;;;35.63;16.23;;;-2.30;75.00;;;;;;5984004;23;20478;-85
2022/03/10 02:38:24;;;;;;;37.10;18.27;;;-2.30;74.00;;;;;;5968958;23;20032;-86
2022/03/10 02:40:51;;;;;;;35.08;17.70;;;-2.30;77.20;;;;;;6033817;23;20046;-86
2022/03/10 02:43:24;;;;;;;33.45;16.63;;;-2.40;77.50;;;;;;6107510;23;20096;-86
2022/03/10 02:46:27;;;;;;;37.30;17.90;;;-2.30;76.70;;;;;;6093663;23;20055;-85
2022/03/10 02:49:39;;;;;;;37.55;16.95;;;-2.40;77.50;;;;;;6086575;23;20022;-86
2022/03/10 02:52:27;;;;;;;44.72;18.13;;;-2.40;76.70;;;;;;6160039;23;20026;-86
2022/03/10 02:55:01;;;;;;;33.85;18.10;;;-2.50;76.70;;;;;;6165200;23;20037;-85
2022/03/10 02:57:47;;;;;;;32.92;17.27;;;-2.50;75.20;;;;;;6137963;23;20290;-85
2022/03/10 03:00:37;;;;;;;36.97;17.67;;;-2.50;75.60;;;;;;6073205;23;20031;-85
2022/03/10 03:03:27;;;;;;;35.53;17.73;;;-2.50;76.20;;;;;;6036073;23;20551;-86
2022/03/10 03:06:14;;;;;;;32.85;16.15;;;-2.50;75.10;;;;;;6065311;23;20054;-86
2022/03/10 03:09:11;;;;;;;34.00;17.07;;;-2.50;73.90;;;;;;6152238;23;20033;-86
2022/03/10 03:11:44;;;;;;;32.08;16.98;;;-2.50;73.90;;;;;;6163633;23;20738;-85
2022/03/10 03:14:56;;;;;;;32.72;16.20;;;-2.60;74.50;;;;;;6163001;23;20021;-85
2022/03/10 03:17:49;;;;;;;40.63;19.75;;;-2.60;73.70;;;;;;6080854;23;20034;-85
2022/03/10 03:20:39;;;;;;;34.27;17.33;;;-2.60;74.50;;;;;;6128235;23;20111;-85
2022/03/10 03:23:30;;;;;;;40.70;17.65;;;-2.60;74.40;;;;;;6163159;23;20017;-85
2022/03/10 03:26:20;;;;;;;35.45;16.92;;;-2.60;76.60;;;;;;6072800;23;20053;-85
2022/03/10 03:36:05;;;;;;;38.10;16.90;;;-2.70;75.70;;;;;;5958572;24;20090;-86
2022/03/10 03:38:38;;;;;;;29.38;14.75;;;-2.70;76.60;;;;;;5937678;24;20029;-85
2022/03/10 03:41:47;;;;;;;36.47;16.25;;;-2.70;76.30;;;;;;5914029;24;20034;-85
2022/03/10 03:44:19;;;;;;;35.70;16.73;;;-2.70;76.00;;;;;;5909150;24;20037;-86
2022/03/10 03:47:12;;;;;;;40.75;17.42;;;-2.80;77.70;;;;;;5908372;24;20191;-86
2022/03/10 03:49:50;;;;;;;38.42;17.88;;;-2.80;78.70;;;;;;5919537;24;20053;-86
2022/03/10 03:52:49;;;;;;;34.35;16.90;;;-2.80;77.50;;;;;;5960107;24;20029;-85
2022/03/10 03:55:42;;;;;;;34.13;16.30;;;-2.80;76.90;;;;;;5960184;24;20025;-85
2022/03/10 03:58:27;;;;;;;44.78;18.02;;;-2.80;75.80;;;;;;5959164;23;20695;-85
2022/03/10 04:01:31;;;;;;;37.72;18.60;;;-2.90;77.00;;;;;;5878588;24;20122;-86
2022/03/10 04:04:25;;;;;;;38.03;18.48;;;-2.80;75.90;;;;;;5877004;24;20023;-86
2022/03/10 04:07:16;;;;;;;34.35;15.55;;;-2.90;77.40;;;;;;5876642;24;20389;-85
2022/03/10 04:10:28;;;;;;;36.03;17.17;;;-2.90;75.80;;;;;;5950822;24;20021;-86
2022/03/10 04:13:15;;;;;;;33.83;17.33;;;-2.90;75.80;;;;;;6006329;23;20031;-86
2022/03/10 04:16:08;;;;;;;36.60;18.27;;;-2.90;76.10;;;;;;6046055;23;20088;-85
2022/03/10 04:19:02;;;;;;;36.92;17.55;;;-2.90;78.00;;;;;;5937516;23;20042;-86
2022/03/10 04:25:29;;;;;;;35.53;14.63;;;-3.00;77.10;;;;;;5783148;24;20470;-85
2022/03/10 04:31:16;;;;;;;37.20;17.83;;;-3.00;75.90;;;;;;5762391;24;20818;-86
2022/03/10 04:33:55;;;;;;;33.10;16.17;;;-3.00;75.40;;;;;;5771527;24;20047;-85
2022/03/10 04:36:49;;;;;;;29.88;15.20;;;-3.00;75.80;;;;;;5905667;23;20021;-86
2022/03/10 04:39:48;;;;;;;31.17;16.38;;;-3.00;75.40;;;;;;5887185;24;20026;-85
2022/03/10 04:42:32;;;;;;;31.50;15.73;;;-3.00;76.10;;;;;;5904173;24;20030;-86
2022/03/10 04:45:16;;;;;;;35.35;17.17;;;-3.00;75.30;;;;;;5883403;24;20030;-87
2022/03/10 04:48:17;;;;;;;41.00;17.02;;;-3.00;76.80;;;;;;5932645;24;20101;-85
2022/03/10 04:54:36;;;;;;;35.88;16.05;;;-3.00;78.00;;;;;;5918328;24;20025;-86
2022/03/10 04:57:17;;;;;;;32.42;15.45;;;-3.00;77.70;;;;;;5988512;23;20056;-86
2022/03/10 05:00:36;;;;;;;32.45;16.63;;;-3.10;77.80;;;;;;5989612;23;20017;-86
2022/03/10 05:06:23;;;;;;;34.83;15.55;;;-3.10;77.60;;;;;;5988037;23;20510;-85
2022/03/10 05:09:31;;;;;;;33.63;16.25;;;-3.10;76.50;;;;;;5969214;23;20028;-85
2022/03/10 05:12:32;;;;;;;37.05;16.45;;;-3.10;76.70;;;;;;5968061;23;20075;-85
2022/03/10 05:19:16;;;;;;;31.10;14.43;;;-3.20;78.30;;;;;;5970649;23;20035;-85
2022/03/10 05:21:55;;;;;;;32.63;16.45;;;-3.20;79.30;;;;;;5990297;23;20025;-85
2022/03/10 05:24:43;;;;;;;29.33;14.35;;;-3.20;78.00;;;;;;5990767;23;20072;-85
2022/03/10 05:27:24;;;;;;;30.85;14.23;;;-3.20;76.60;;;;;;6023944;23;20086;-86
2022/03/10 05:30:14;;;;;;;29.15;14.82;;;-3.30;77.80;;;;;;6023177;23;20020;-85
2022/03/10 05:32:49;;;;;;;35.97;15.40;;;-3.30;77.70;;;;;;6069233;23;20022;-85
2022/03/10 05:35:22;;;;;;;27.30;14.67;;;-3.30;77.40;;;;;;6120049;23;20023;-85
2022/03/10 05:38:08;;;;;;;36.80;17.63;;;-3.30;77.00;;;;;;6146167;23;20242;-86
2022/03/10 05:40:35;;;;;;;34.17;16.98;;;-3.30;77.00;;;;;;6125301;23;20021;-85
2022/03/10 05:43:02;;;;;;;31.25;16.55;;;-3.30;76.40;;;;;;6148383;23;20074;-85
2022/03/10 05:45:35;;;;;;;28.48;15.05;;;-3.30;76.40;;;;;;6143797;23;20064;-85
2022/03/10 05:48:25;;;;;;;33.92;16.13;;;-3.30;75.90;;;;;;6172897;23;20018;-86
2022/03/10 05:58:46;;;;;;;31.40;15.23;;;-3.30;77.80;;;;;;5968173;24;20033;-85
2022/03/10 06:05:05;;;;;;;;;;;;;;;;;;;;;
2022/03/10 06:08:23;;;;;;;32.63;16.45;;;-3.30;75.70;;;;;;5906295;24;20030;-85
2022/03/10 06:10:56;;;;;;;34.50;15.25;;;-3.30;76.60;;;;;;5854054;24;20014;-85
2022/03/10 06:13:58;;;;;;;33.92;16.65;;;-3.30;78.10;;;;;;5829623;24;20019;-85
2022/03/10 06:16:40;;;;;;;40.05;17.13;;;-3.30;78.30;;;;;;5856412;24;20014;-85
2022/03/10 06:19:29;;;;;;;36.08;17.73;;;-3.30;78.80;;;;;;5854479;24;20106;-85
2022/03/10 06:21:55;;;;;;;38.85;18.70;;;-3.20;80.10;;;;;;5852748;24;20796;-85
2022/03/10 06:25:01;;;;;;;36.50;16.60;;;-3.20;79.10;;;;;;5854526;24;20030;-85
2022/03/10 06:27:45;;;;;;;37.30;18.33;;;-3.10;78.10;;;;;;5822047;24;20797;-85
2022/03/10 06:33:58;;;;;;;32.92;15.77;;;-3.10;77.70;;;;;;5838159;24;20022;-85
2022/03/10 06:36:32;;;;;;;33.13;16.13;;;-3.00;77.10;;;;;;5854384;24;20042;-84
2022/03/10 06:39:13;;;;;;;37.10;17.80;;;-3.00;77.40;;;;;;5961984;23;20490;-85
2022/03/10 06:41:50;;;;;;;36.33;18.80;;;-3.00;78.30;;;;;;5964442;23;20040;-85
2022/03/10 06:44:17;;;;;;;31.52;17.17;;;-3.00;78.00;;;;;;6017917;23;20473;-85
2022/03/10 06:47:09;;;;;;;36.90;18.15;;;-3.00;77.90;;;;;;6055118;23;20031;-85
2022/03/10 06:49:57;;;;;;;35.38;16.88;;;-2.90;78.20;;;;;;6164079;23;20773;-84
2022/03/10 06:53:28;;;;;;;35.58;16.83;;;-2.90;79.20;;;;;;6163526;23;20081;-85
2022/03/10 06:56:49;;;;;;;33.72;16.80;;;-2.80;78.80;;;;;;6162295;23;20463;-85
2022/03/10 06:59:38;;;;;;;34.22;16.35;;;-2.80;79.00;;;;;;6068877;23;20046;-85
2022/03/10 07:02:31;;;;;;;40.28;18.15;;;-2.70;78.00;;;;;;6049376;23;20035;-85
2022/03/10 07:05:20;;;;;;;37.53;17.35;;;-2.60;78.70;;;;;;6059575;23;20038;-85
2022/03/10 07:08:21;;;;;;;36.13;17.85;;;-2.60;79.30;;;;;;6066711;23;20024;-85
2022/03/10 07:11:43;;;;;;;31.17;15.38;;;-2.50;78.30;;;;;;5960784;24;20453;-85
2022/03/10 07:14:32;;;;;;;39.15;17.25;;;-2.40;77.70;;;;;;5919598;24;20029;-86
2022/03/10 07:17:56;;;;;;;34.78;17.50;;;-2.40;79.20;;;;;;5939452;24;20025;-85
2022/03/10 07:21:34;;;;;;;48.72;18.48;;;-2.30;80.00;;;;;;6033329;23;20024;-85
2022/03/10 07:24:38;;;;;;;;;;;;;;;;;;;;;
2022/03/10 07:51:01;;;;;;;44.58;19.83;;;-1.20;79.70;;;;;;6128717;23;20029;-85
2022/03/10 07:53:28;;;;;;;39.45;18.88;;;-0.90;80.70;;;;;;6195370;23;20021;-86
2022/03/10 07:59:57;;;;;;;40.97;17.45;;;-0.40;81.70;;;;;;6197117;23;20014;-86
2022/03/10 08:03:29;;;;;;;39.58;18.15;;;0.30;80.40;;;;;;6193636;23;20053;-86
2022/03/10 08:06:14;;;;;;;34.97;17.38;;;0.80;79.90;;;;;;5992764;23;20134;-86
2022/03/10 08:09:35;;;;;;;38.85;17.98;;;1.40;76.90;;;;;;5993763;23;20054;-85
2022/03/10 08:12:29;;;;;;;30.75;15.88;;;1.90;76.30;;;;;;5868772;24;20031;-85
2022/03/10 08:15:43;;;;;;;28.45;15.10;;;2.20;73.70;;;;;;5886491;24;20100;-86
2022/03/10 08:22:06;;;;;;;25.95;13.57;;;3.20;67.80;;;;;;5878255;24;20042;-85
2022/03/10 08:29:04;;;;;;;28.30;13.70;;;4.70;63.50;;;;;;5876372;24;20030;-85
2022/03/10 08:31:50;;;;;;;24.17;12.88;;;5.40;62.30;;;;;;5827265;24;20026;-85
2022/03/10 08:35:11;;;;;;;30.20;14.82;;;6.10;59.20;;;;;;5874808;24;20027;-86
2022/03/10 08:38:04;;;;;;;26.25;14.48;;;6.70;59.10;;;;;;5840131;24;20019;-86
2022/03/10 08:41:03;;;;;;;27.75;14.80;;;7.40;57.90;;;;;;5887629;24;20037;-86
2022/03/10 08:43:37;;;;;;;30.25;14.10;;;8.00;54.90;;;;;;6012236;23;20061;-86
2022/03/10 08:46:43;;;;;;;26.30;14.02;;;8.20;52.30;;;;;;6015616;23;20028;-86
2022/03/10 08:49:10;;;;;;;32.53;13.98;;;8.70;53.70;;;;;;5971181;23;20021;-86
2022/03/10 08:52:01;;;;;;;26.30;13.93;;;9.20;52.30;;;;;;5990199;23;20028;-85
2022/03/10 08:55:07;;;;;;;27.27;13.85;;;9.60;49.30;;;;;;5993025;23;20024;-84
2022/03/10 09:01:27;;;;;;;24.70;12.98;;;10.60;51.00;;;;;;6014672;23;20458;-87
2022/03/10 09:03:55;;;;;;;26.42;14.52;;;10.70;47.10;;;;;;6014015;23;20226;-87
2022/03/10 09:07:51;;;;;;;;;;;;;;;;;;;;;
2022/03/10 09:10:42;;;;;;;24.15;13.57;;;11.60;45.20;;;;;;5986390;23;20075;-86
2022/03/10 09:13:53;;;;;;;24.08;14.23;;;12.10;44.60;;;;;;5876659;24;20022;-84
2022/03/10 09:20:13;;;;;;;26.75;13.85;;;12.70;42.80;;;;;;5876783;24;20079;-86
2022/03/10 09:23:31;;;;;;;24.67;14.00;;;13.40;41.90;;;;;;5902473;24;20025;-87
2022/03/10 09:26:00;;;;;;;29.35;14.93;;;13.50;44.50;;;;;;5894685;24;20022;-84
2022/03/10 09:28:43;;;;;;;27.08;14.82;;;13.80;41.50;;;;;;5929310;24;20038;-87
2022/03/10 09:36:26;;;;;;;28.73;15.88;;;13.40;39.70;;;;;;5959413;24;20060;-85
2022/03/10 09:39:54;;;;;;;27.25;14.73;;;13.60;42.30;;;;;;5826461;24;20104;-87
2022/03/10 09:46:50;;;;;;;27.98;15.10;;;13.80;41.20;;;;;;5797094;24;20028;-87
2022/03/10 09:50:04;;;;;;;29.30;15.95;;;14.20;39.30;;;;;;5774751;24;20039;-87
2022/03/10 09:52:31;;;;;;;28.50;14.63;;;14.20;38.90;;;;;;5727552;24;20104;-88
2022/03/10 09:55:42;;;;;;;29.02;16.00;;;14.40;40.80;;;;;;5823800;24;20081;-88
2022/03/10 09:58:09;;;;;;;34.75;16.38;;;14.50;40.70;;;;;;5824835;24;20026;-87
2022/03/10 10:00:34;;;;;;;25.17;15.02;;;14.80;39.20;;;;;;5907487;24;20014;-88
2022/03/10 10:03:23;;;;;;;31.10;16.38;;;14.90;40.00;;;;;;5931768;24;20033;-88
2022/03/10 10:06:00;;;;;;;33.22;16.02;;;14.40;39.90;;;;;;5934085;24;20083;-88
2022/03/10 10:08:31;;;;;;;27.42;16.55;;;14.50;38.40;;;;;;5935837;24;20111;-88
2022/03/10 10:11:43;;;;;;;27.25;15.30;;;14.20;37.70;;;;;;5936634;24;20033;-87
2022/03/10 10:14:47;;;;;;;29.10;16.40;;;14.20;39.30;;;;;;5943373;23;20026;-86
2022/03/10 10:17:24;;;;;;;25.65;15.02;;;14.60;39.40;;;;;;6047860;23;20057;-89
2022/03/10 10:20:41;;;;;;;29.88;16.83;;;14.50;38.70;;;;;;6131102;23;20021;-86
2022/03/10 10:23:58;;;;;;;28.70;15.82;;;15.00;41.20;;;;;;6197504;23;20022;-88
2022/03/10 10:34:06;;;;;;;28.35;14.73;;;15.70;40.50;;;;;;6106713;23;20027;-89
2022/03/10 10:36:38;;;;;;;26.70;15.70;;;15.90;39.20;;;;;;6083390;23;20588;-89
2022/03/10 10:42:42;;;;;;;26.02;14.88;;;16.00;39.50;;;;;;5993849;23;20029;-87
2022/03/10 10:45:57;;;;;;;28.80;15.32;;;15.90;37.70;;;;;;5969956;23;20424;-88
2022/03/10 10:49:06;;;;;;;30.65;16.35;;;16.20;37.90;;;;;;5910008;24;20046;-89
2022/03/10 10:55:16;;;;;;;25.80;14.80;;;16.20;37.50;;;;;;5835066;24;20025;-88
2022/03/10 10:57:52;;;;;;;26.38;15.88;;;16.30;38.50;;;;;;5857813;24;20023;-90
2022/03/10 11:04:19;;;;;;;28.73;16.10;;;16.60;39.00;;;;;;5801336;24;20981;-89
2022/03/10 11:19:40;;;;;;;27.58;14.77;;;16.40;39.50;;;;;;5970710;23;20016;-86
2022/03/10 11:22:52;;;;;;;27.58;14.40;;;15.90;37.10;;;;;;5969255;23;20029;-89
2022/03/10 11:25:55;;;;;;;24.00;13.50;;;15.60;37.60;;;;;;6007622;23;20067;-90
2022/03/10 11:28:44;;;;;;;23.83;14.25;;;15.90;39.20;;;;;;5974226;23;20020;-90
2022/03/10 11:32:32;;;;;;;;;;;;;;;;;;;;;
2022/03/10 11:39:31;;;;;;;27.05;14.98;;;15.40;37.90;;;;;;5941029;24;20779;-91
2022/03/10 11:42:30;;;;;;;26.33;14.85;;;15.20;39.10;;;;;;5990333;23;20020;-90
2022/03/10 11:45:08;;;;;;;26.02;14.98;;;15.30;37.80;;;;;;5993117;23;20104;-87
2022/03/10 11:47:46;;;;;;;28.88;15.05;;;15.40;38.70;;;;;;5969374;23;20048;-89
2022/03/10 11:50:44;;;;;;;32.38;17.45;;;15.50;38.40;;;;;;6063930;23;20023;-90
2022/03/10 11:53:14;;;;;;;32.75;16.98;;;15.50;38.00;;;;;;6089741;23;20819;-88
2022/03/10 11:55:58;;;;;;;28.75;16.75;;;15.30;38.60;;;;;;6136046;23;20917;-90
2022/03/10 12:02:30;;;;;;;26.35;14.45;;;15.50;38.40;;;;;;6139199;23;20018;-90
2022/03/10 12:04:57;;;;;;;31.48;14.55;;;15.50;39.50;;;;;;6024194;23;20016;-91
2022/03/10 12:07:53;;;;;;;26.38;14.60;;;15.50;37.40;;;;;;6007738;23;20016;-90
2022/03/10 12:15:38;;;;;;;28.00;14.80;;;15.40;38.20;;;;;;6029052;23;20020;-89
2022/03/10 12:18:59;;;;;;;26.15;14.85;;;15.40;37.10;;;;;;6029282;23;20024;-90
2022/03/10 12:21:32;;;;;;;29.33;15.00;;;15.00;36.40;;;;;;6006932;23;20054;-89
2022/03/10 12:27:57;;;;;;;25.63;14.32;;;15.10;36.20;;;;;;6032159;23;20020;-90
2022/03/10 12:30:26;;;;;;;24.50;13.10;;;15.20;36.50;;;;;;6032749;23;20046;-89
2022/03/10 12:33:41;;;;;;;;;;;;;;;;;;;;;
2022/03/10 12:36:52;;;;;;;26.00;13.68;;;15.30;37.20;;;;;;5993983;23;20038;-89
2022/03/10 12:42:26;;;;;;;25.88;13.52;;;15.30;35.60;;;;;;5965811;23;20133;-89
2022/03/10 12:45:23;;;;;;;27.38;13.73;;;15.30;36.80;;;;;;5990365;23;20020;-88
2022/03/10 12:48:42;;;;;;;;;;;;;;;;;;;;;
2022/03/10 12:51:36;;;;;;;25.95;13.90;;;15.10;36.10;;;;;;5944109;24;20049;-89
2022/03/10 12:54:36;;;;;;;24.55;14.38;;;15.10;37.70;;;;;;5918817;24;20655;-90
2022/03/10 12:57:50;;;;;;;24.98;13.88;;;15.50;37.70;;;;;;5898906;24;20029;-90
2022/03/10 13:00:55;;;;;;;26.08;14.73;;;15.60;36.90;;;;;;5858922;24;20014;-90
2022/03/10 13:07:59;;;;;;;;;;;;;;;;;;;;;
2022/03/10 13:25:10;;;;;;;;;;;;;;;;;;;;;
2022/03/10 13:28:26;;;;;;;25.52;13.57;;;15.70;38.40;;;;;;6214332;23;20079;-87
2022/03/10 13:30:57;;;;;;;24.85;14.57;;;15.70;39.50;;;;;;6195485;23;20017;-87
2022/03/10 13:33:26;;;;;;;25.88;14.88;;;15.90;39.00;;;;;;6193005;23;20032;-87
2022/03/10 13:38:56;;;;;;;25.92;14.75;;;15.80;40.70;;;;;;6066299;23;20417;-86
2022/03/10 13:41:36;;;;;;;25.90;13.88;;;15.90;39.70;;;;;;6065298;23;20094;-87
2022/03/10 13:44:15;;;;;;;24.40;15.15;;;15.90;39.40;;;;;;6065770;23;20976;-87
2022/03/10 13:46:42;;;;;;;23.25;14.75;;;15.80;39.10;;;;;;6068986;23;20012;-86
2022/03/10 13:50:07;;;;;;;30.52;15.50;;;15.80;38.10;;;;;;6043386;23;20027;-87
2022/03/10 13:52:33;;;;;;;24.80;15.60;;;15.60;38.30;;;;;;6066778;23;20724;-86
2022/03/10 13:55:13;;;;;;;23.90;15.32;;;15.50;39.40;;;;;;6065074;23;20074;-88
2022/03/10 13:58:09;;;;;;;24.58;14.85;;;15.70;40.00;;;;;;6066087;23;20031;-87
2022/03/10 14:01:13;;;;;;;29.52;15.35;;;15.70;38.70;;;;;;6065651;23;20023;-87
2022/03/10 14:03:42;;;;;;;26.17;14.82;;;15.70;38.30;;;;;;6063763;23;20030;-86
2022/03/10 14:06:15;;;;;;;26.65;14.48;;;15.50;39.00;;;;;;6065857;23;20519;-85
2022/03/10 14:09:09;;;;;;;31.35;15.35;;;15.50;40.50;;;;;;6065681;23;20035;-85
2022/03/10 14:11:51;;;;;;;25.70;14.32;;;15.60;39.00;;;;;;6022558;23;20019;-85
2022/03/10 14:14:51;;;;;;;26.35;15.23;;;15.60;38.60;;;;;;6068608;23;21198;-86
2022/03/10 14:17:58;;;;;;;26.88;15.70;;;15.50;38.10;;;;;;6103717;23;20037;-88
2022/03/10 14:21:06;;;;;;;22.38;14.25;;;15.40;37.70;;;;;;6124002;23;20093;-86
2022/03/10 14:24:12;;;;;;;29.17;15.73;;;15.40;37.20;;;;;;6068804;23;20047;-88
2022/03/10 14:26:41;;;;;;;26.25;14.93;;;15.40;37.50;;;;;;6043174;23;20024;-86
2022/03/10 14:29:42;;;;;;;23.67;14.82;;;15.40;37.40;;;;;;6068522;23;20036;-87
2022/03/10 14:32:26;;;;;;;25.52;14.40;;;15.30;37.40;;;;;;6067871;23;20113;-87
2022/03/10 14:35:03;;;;;;;27.92;14.20;;;15.40;37.70;;;;;;6044334;23;20211;-86
2022/03/10 14:37:53;;;;;;;29.52;16.17;;;15.50;38.10;;;;;;6042008;23;20355;-87
2022/03/10 14:40:40;;;;;;;23.85;14.85;;;15.40;37.10;;;;;;6062675;23;20031;-87
2022/03/10 14:43:08;;;;;;;26.08;14.95;;;15.70;38.30;;;;;;6068592;23;20136;-84
2022/03/10 14:46:03;;;;;;;24.60;14.70;;;15.70;38.40;;;;;;6066895;23;20107;-88
2022/03/10 14:48:42;;;;;;;25.85;14.15;;;15.60;37.60;;;;;;6068825;23;20027;-87
2022/03/10 14:51:16;;;;;;;30.30;14.77;;;15.50;37.00;;;;;;6046276;23;20027;-87
2022/03/10 14:53:43;;;;;;;24.40;14.23;;;15.40;37.50;;;;;;6066748;23;20047;-86
2022/03/10 14:56:16;;;;;;;28.63;14.98;;;15.50;38.30;;;;;;6066961;23;20020;-86
2022/03/10 14:58:50;;;;;;;30.08;15.35;;;15.30;38.40;;;;;;6213748;23;20017;-86
2022/03/10 15:01:17;;;;;;;27.10;14.23;;;15.40;37.50;;;;;;6187653;23;20137;-86
2022/03/10 15:04:17;;;;;;;29.65;14.10;;;15.50;38.60;;;;;;6192399;23;20017;-87
2022/03/10 15:06:44;;;;;;;27.00;15.35;;;15.40;38.50;;;;;;6219132;23;20031;-87
2022/03/10 15:09:30;;;;;;;26.05;14.52;;;15.40;37.70;;;;;;6220130;23;20041;-87
2022/03/10 15:11:57;;;;;;;31.40;14.75;;;15.40;38.10;;;;;;6192922;23;20080;-87
2022/03/10 15:14:53;;;;;;;30.95;15.13;;;15.60;38.60;;;;;;6194832;23;20048;-86
2022/03/10 15:17:32;;;;;;;27.50;14.68;;;15.60;36.50;;;;;;6216906;23;20049;-86
2022/03/10 15:19:59;;;;;;;24.08;13.57;;;15.60;37.50;;;;;;6187277;23;20071;-86
2022/03/10 15:25:51;;;;;;;24.75;14.55;;;15.60;37.90;;;;;;6219139;23;20247;-88
2022/03/10 15:28:45;;;;;;;26.08;14.77;;;15.60;37.50;;;;;;6193368;23;20364;-87
2022/03/10 15:31:16;;;;;;;24.30;14.38;;;15.60;37.10;;;;;;6215384;23;20035;-87
2022/03/10 15:34:07;;;;;;;27.17;13.55;;;15.70;37.60;;;;;;6194012;23;20021;-86
2022/03/10 15:37:02;;;;;;;24.95;13.88;;;15.80;37.90;;;;;;6190460;23;20166;-85
2022/03/10 15:39:33;;;;;;;26.33;14.23;;;15.90;37.50;;;;;;6220317;23;20056;-85
2022/03/10 15:42:13;;;;;;;23.98;14.15;;;15.80;37.00;;;;;;6188877;23;20025;-86
2022/03/10 15:45:09;;;;;;;24.45;14.52;;;15.80;37.80;;;;;;6190661;23;20444;-85
2022/03/10 15:47:47;;;;;;;26.98;14.70;;;15.80;36.60;;;;;;6217482;23;20068;-85
2022/03/10 15:50:23;;;;;;;25.80;14.48;;;15.80;37.30;;;;;;6216837;23;20025;-86
2022/03/10 15:53:01;;;;;;;27.23;14.60;;;15.70;37.00;;;;;;6216033;23;20063;-86
2022/03/10 15:55:41;;;;;;;23.05;13.23;;;16.00;38.50;;;;;;6191168;23;20021;-85
2022/03/10 15:58:26;;;;;;;26.67;13.98;;;16.10;36.60;;;;;;6189774;23;20028;-86
2022/03/10 16:00:59;;;;;;;22.52;13.18;;;16.10;37.00;;;;;;6214593;23;20343;-86
2022/03/10 16:03:35;;;;;;;25.23;14.23;;;16.30;38.00;;;;;;6189496;23;20021;-86
2022/03/10 16:06:11;;;;;;;29.45;13.73;;;16.60;37.00;;;;;;6190544;23;20862;-87
2022/03/10 16:08:53;;;;;;;23.80;13.00;;;16.60;36.20;;;;;;6187437;23;20116;-88
2022/03/10 16:11:41;;;;;;;24.48;14.10;;;16.50;35.80;;;;;;6189285;23;20044;-88
2022/03/10 16:14:28;;;;;;;25.42;15.05;;;16.60;36.10;;;;;;6190281;23;20028;-87
2022/03/10 16:17:05;;;;;;;25.55;13.70;;;16.50;35.00;;;;;;6217059;23;20671;-87
2022/03/10 16:19:37;;;;;;;25.58;14.30;;;16.30;35.20;;;;;;6218712;23;20556;-87
2022/03/10 16:22:14;;;;;;;22.30;13.43;;;16.10;35.00;;;;;;6192651;23;20364;-87
2022/03/10 16:24:57;;;;;;;23.35;14.13;;;16.20;35.80;;;;;;6187551;23;20029;-87
2022/03/10 16:30:36;;;;;;;23.70;13.23;;;15.90;35.50;;;;;;6126587;23;20076;-86
2022/03/10 16:33:29;;;;;;;24.88;14.68;;;15.80;36.20;;;;;;6183601;23;20025;-85
2022/03/10 16:35:59;;;;;;;23.25;14.02;;;15.60;35.90;;;;;;6043221;23;20035;-88
2022/03/10 16:38:57;;;;;;;27.70;15.10;;;15.30;35.90;;;;;;6044889;23;20027;-87
2022/03/10 16:41:29;;;;;;;24.13;14.02;;;15.20;36.70;;;;;;6067829;23;20027;-87
2022/03/10 16:44:12;;;;;;;28.85;13.65;;;15.00;37.00;;;;;;6044968;23;20031;-87
2022/03/10 16:46:44;;;;;;;28.85;14.90;;;14.90;37.60;;;;;;6043813;23;20022;-86
2022/03/10 16:49:59;;;;;;;24.83;14.60;;;14.70;37.50;;;;;;5912836;24;20556;-87
2022/03/10 16:53:03;;;;;;;26.60;13.30;;;14.60;37.70;;;;;;5930572;24;20113;-87
2022/03/10 16:55:35;;;;;;;25.85;14.50;;;14.50;38.40;;;;;;5951630;24;20100;-86
2022/03/10 16:58:47;;;;;;;22.80;13.65;;;14.40;39.10;;;;;;5930072;24;20021;-87
2022/03/10 17:01:39;;;;;;;27.65;14.88;;;14.30;39.10;;;;;;5907818;24;20100;-87
2022/03/10 17:07:38;;;;;;;24.58;13.00;;;14.00;39.50;;;;;;5951863;24;20172;-87
2022/03/10 17:10:05;;;;;;;23.80;14.38;;;13.80;40.10;;;;;;5953889;24;20108;-87
2022/03/10 17:12:46;;;;;;;25.60;13.00;;;13.70;40.60;;;;;;5999291;23;20074;-87
2022/03/10 17:19:40;;;;;;;33.20;13.85;;;13.50;41.10;;;;;;6055862;23;20831;-86
2022/03/10 17:22:07;;;;;;;27.27;14.55;;;13.20;41.40;;;;;;6126149;23;20031;-86
2022/03/10 17:27:55;;;;;;;32.05;14.63;;;12.90;42.10;;;;;;6082427;23;20039;-86
2022/03/10 17:30:44;;;;;;;31.27;14.70;;;12.70;42.40;;;;;;6124681;23;20022;-87
2022/03/10 17:33:48;;;;;;;27.20;14.75;;;12.50;42.70;;;;;;6125169;23;20019;-86
2022/03/10 17:36:45;;;;;;;24.23;14.10;;;12.40;42.70;;;;;;6014635;23;20863;-87
2022/03/10 17:39:12;;;;;;;29.00;15.23;;;12.20;43.10;;;;;;6016100;23;20004;-86
2022/03/10 17:41:39;;;;;;;28.83;14.95;;;12.10;43.30;;;;;;6037718;23;20512;-86
2022/03/10 17:44:29;;;;;;;29.20;14.85;;;12.00;43.10;;;;;;6030919;23;20028;-85